Time;durP1;ratioP1;P1;durP2;ratioP2;P2;SDS_P1;SDS_P2;PMS_P1;PMS_P2;Temp;Humidity;BMP_temperature;BMP_pressure;BME280_temperature;BME280_humidity;BME280_pressure;Samples;Min_cycle;Max_cycle;Signal;HPM_P1;HPM_P2
2021/09/19 00:01:56;;;;;;;23.50;20.93;;;12.20;99.90;;;;;;5117773;27;20449;-64
2021/09/19 00:04:23;;;;;;;23.70;21.20;;;12.10;99.90;;;;;;5111759;27;20445;-64
2021/09/19 00:06:50;;;;;;;24.50;21.33;;;12.10;99.90;;;;;;5110979;27;20578;-63
2021/09/19 00:09:18;;;;;;;23.23;20.93;;;12.10;99.90;;;;;;5111443;28;20443;-63
2021/09/19 00:11:45;;;;;;;23.70;21.27;;;12.10;99.90;;;;;;5111061;28;20445;-64
2021/09/19 00:14:13;;;;;;;24.87;22.37;;;12.00;99.90;;;;;;5110721;28;20867;-63
2021/09/19 00:16:40;;;;;;;23.73;21.30;;;12.00;99.90;;;;;;5111508;28;20557;-63
2021/09/19 00:19:07;;;;;;;25.10;22.40;;;12.00;99.90;;;;;;5110625;28;20521;-63
2021/09/19 00:21:34;;;;;;;23.13;20.83;;;12.10;99.90;;;;;;5110906;27;20532;-63
2021/09/19 00:24:01;;;;;;;24.10;21.70;;;12.20;99.90;;;;;;5110977;27;20818;-64
2021/09/19 00:26:29;;;;;;;24.40;21.90;;;12.10;99.90;;;;;;5111261;28;20503;-64
2021/09/19 00:28:56;;;;;;;21.50;19.27;;;12.10;99.90;;;;;;5116286;27;21128;-64
2021/09/19 00:31:23;;;;;;;24.87;22.13;;;12.10;99.90;;;;;;5119659;27;20509;-64
2021/09/19 00:33:50;;;;;;;23.60;21.30;;;12.00;99.90;;;;;;5115426;27;20529;-64
2021/09/19 00:36:16;;;;;;;23.03;20.73;;;12.00;99.90;;;;;;5111955;27;20564;-64
2021/09/19 00:38:43;;;;;;;23.60;21.10;;;11.90;99.90;;;;;;5119115;27;21190;-63
2021/09/19 00:41:10;;;;;;;24.67;22.03;;;11.90;99.90;;;;;;5111322;28;20942;-64
2021/09/19 00:43:39;;;;;;;24.67;22.07;;;11.70;99.90;;;;;;5113291;27;20942;-64
2021/09/19 00:46:06;;;;;;;25.60;22.73;;;11.60;99.90;;;;;;5131615;27;20940;-63
2021/09/19 00:48:33;;;;;;;27.93;24.40;;;11.60;99.90;;;;;;5131585;27;20547;-64
2021/09/19 00:51:01;;;;;;;25.97;23.27;;;11.60;99.90;;;;;;5131505;27;20452;-63
2021/09/19 00:53:28;;;;;;;25.87;23.17;;;11.50;99.90;;;;;;5132207;27;20487;-64
2021/09/19 00:55:58;;;;;;;25.17;22.33;;;11.50;99.90;;;;;;5131575;27;20468;-64
2021/09/19 00:58:26;;;;;;;30.47;24.20;;;11.50;99.90;;;;;;5127932;27;20484;-63
2021/09/19 01:00:55;;;;;;;25.83;22.80;;;11.50;99.90;;;;;;5123511;27;20527;-63
2021/09/19 01:03:22;;;;;;;25.07;22.37;;;11.50;99.90;;;;;;5111432;28;20556;-64
2021/09/19 01:05:50;;;;;;;32.00;22.27;;;11.50;99.90;;;;;;5111200;28;20473;-64
2021/09/19 01:08:18;;;;;;;25.03;21.60;;;11.50;99.90;;;;;;5111540;27;20948;-64
2021/09/19 01:10:45;;;;;;;25.63;22.93;;;11.50;99.90;;;;;;5111687;28;20457;-64
2021/09/19 01:13:13;;;;;;;27.17;24.37;;;11.50;99.90;;;;;;5110911;28;20441;-64
2021/09/19 01:15:40;;;;;;;27.33;22.30;;;11.40;99.90;;;;;;5111296;27;20461;-63
2021/09/19 01:18:09;;;;;;;24.97;22.30;;;11.30;99.90;;;;;;5110927;27;20476;-63
2021/09/19 01:20:37;;;;;;;24.80;22.13;;;11.20;99.90;;;;;;5118767;27;20507;-63
2021/09/19 01:23:05;;;;;;;26.57;23.80;;;11.20;99.90;;;;;;5111101;28;20456;-64
2021/09/19 01:25:34;;;;;;;23.70;21.30;;;11.20;99.90;;;;;;5111325;28;20505;-63
2021/09/19 01:28:02;;;;;;;23.43;20.93;;;11.20;99.90;;;;;;5110869;27;20467;-63
2021/09/19 01:30:29;;;;;;;28.57;23.73;;;11.20;99.90;;;;;;5117118;27;20940;-63
2021/09/19 01:32:56;;;;;;;27.13;22.70;;;11.20;99.90;;;;;;5119220;27;20534;-63
2021/09/19 01:35:23;;;;;;;26.33;23.53;;;11.10;99.90;;;;;;5110996;27;21005;-63
2021/09/19 01:37:50;;;;;;;25.07;22.43;;;11.10;99.90;;;;;;5110702;28;20473;-63
2021/09/19 01:40:17;;;;;;;25.67;21.23;;;11.00;99.90;;;;;;5110775;28;20461;-63
2021/09/19 01:42:46;;;;;;;29.37;24.00;;;11.00;99.90;;;;;;5110441;27;20536;-63
2021/09/19 01:45:13;;;;;;;24.77;22.03;;;11.00;99.90;;;;;;5112136;27;20554;-63
2021/09/19 01:47:40;;;;;;;25.50;22.80;;;10.90;99.90;;;;;;5131270;27;20444;-64
2021/09/19 01:50:09;;;;;;;26.03;21.97;;;11.00;99.90;;;;;;5130748;27;20834;-63
2021/09/19 01:52:36;;;;;;;26.53;22.97;;;10.90;99.90;;;;;;5131067;27;20440;-63
2021/09/19 01:55:04;;;;;;;26.07;20.27;;;11.00;99.90;;;;;;5130383;27;20452;-67
2021/09/19 01:57:31;;;;;;;23.60;20.97;;;10.90;99.90;;;;;;5130718;27;20444;-63
2021/09/19 01:59:59;;;;;;;24.43;21.53;;;10.90;99.90;;;;;;5120118;27;21083;-63
2021/09/19 02:02:26;;;;;;;27.13;22.03;;;10.90;99.90;;;;;;5112172;27;20985;-65
2021/09/19 02:04:55;;;;;;;23.30;19.53;;;10.90;99.90;;;;;;5110046;27;20453;-64
2021/09/19 02:07:22;;;;;;;22.07;19.60;;;11.00;99.90;;;;;;5111587;27;20452;-64
2021/09/19 02:09:49;;;;;;;21.60;19.40;;;10.90;99.90;;;;;;5115353;27;20443;-64
2021/09/19 02:12:16;;;;;;;22.13;19.20;;;10.80;99.90;;;;;;5110974;28;20452;-64
2021/09/19 02:14:43;;;;;;;21.37;17.53;;;10.80;99.90;;;;;;5112012;28;20923;-64
2021/09/19 02:17:13;;;;;;;20.87;18.63;;;10.80;99.90;;;;;;5112023;28;20469;-64
2021/09/19 02:19:41;;;;;;;18.17;16.37;;;10.90;99.90;;;;;;5111988;28;20487;-64
2021/09/19 02:22:09;;;;;;;21.33;19.10;;;10.90;99.90;;;;;;5111684;28;20453;-64
2021/09/19 02:24:36;;;;;;;20.87;17.37;;;10.90;99.90;;;;;;5111545;28;20520;-64
2021/09/19 02:27:03;;;;;;;19.17;17.20;;;10.90;99.90;;;;;;5111553;28;20477;-64
2021/09/19 02:29:30;;;;;;;20.57;16.73;;;10.90;99.90;;;;;;5111775;28;20449;-64
2021/09/19 02:31:57;;;;;;;19.93;17.77;;;10.90;99.90;;;;;;5111171;27;20472;-64
2021/09/19 02:34:26;;;;;;;19.97;17.87;;;10.90;99.90;;;;;;5111379;27;20452;-66
2021/09/19 02:36:53;;;;;;;21.83;17.53;;;10.90;99.90;;;;;;5111424;28;21002;-64
2021/09/19 02:39:20;;;;;;;18.33;16.33;;;10.90;99.90;;;;;;5111306;28;20477;-65
2021/09/19 02:41:47;;;;;;;22.33;18.00;;;10.80;99.90;;;;;;5110764;28;20475;-65
2021/09/19 02:44:14;;;;;;;20.27;16.90;;;10.70;99.90;;;;;;5111534;28;20441;-64
2021/09/19 02:46:41;;;;;;;19.63;16.80;;;10.60;99.90;;;;;;5111396;28;20846;-64
2021/09/19 02:49:09;;;;;;;21.40;17.10;;;10.60;99.90;;;;;;5111516;28;20449;-65
2021/09/19 02:51:37;;;;;;;23.43;17.70;;;10.50;99.90;;;;;;5110973;28;21166;-64
2021/09/19 02:54:04;;;;;;;19.97;17.13;;;10.50;99.90;;;;;;5111625;28;20445;-65
2021/09/19 02:56:31;;;;;;;18.97;16.97;;;10.50;99.90;;;;;;5110892;28;20471;-64
2021/09/19 02:58:58;;;;;;;23.50;17.53;;;10.50;99.90;;;;;;5110823;28;20580;-64
2021/09/19 03:01:25;;;;;;;19.20;17.00;;;10.50;99.90;;;;;;5110925;28;20455;-64
2021/09/19 03:03:52;;;;;;;24.03;16.50;;;10.50;99.90;;;;;;5111139;28;20540;-64
2021/09/19 03:06:21;;;;;;;19.77;16.20;;;10.50;99.90;;;;;;5111475;28;20461;-65
2021/09/19 03:08:49;;;;;;;18.00;15.27;;;10.50;99.90;;;;;;5111532;28;20494;-64
2021/09/19 03:11:16;;;;;;;18.33;16.40;;;10.50;99.90;;;;;;5111020;28;20449;-64
2021/09/19 03:13:45;;;;;;;23.60;17.67;;;10.40;99.90;;;;;;5110638;28;20557;-64
2021/09/19 03:16:12;;;;;;;22.50;18.20;;;10.30;99.90;;;;;;5110710;28;21080;-64
2021/09/19 03:18:39;;;;;;;23.87;19.27;;;10.30;99.90;;;;;;5110715;28;20477;-64
2021/09/19 03:21:05;;;;;;;20.87;18.57;;;10.40;99.90;;;;;;5110827;28;20908;-64
2021/09/19 03:23:32;;;;;;;23.77;19.37;;;10.40;99.90;;;;;;5110602;28;20453;-64
2021/09/19 03:26:01;;;;;;;22.10;18.83;;;10.50;99.90;;;;;;5110798;28;20472;-64
2021/09/19 03:28:27;;;;;;;20.63;17.83;;;10.40;99.90;;;;;;5110837;28;20446;-64
2021/09/19 03:30:54;;;;;;;19.63;16.47;;;10.40;99.90;;;;;;5110908;28;20823;-64
2021/09/19 03:33:21;;;;;;;20.10;17.80;;;10.40;99.90;;;;;;5110273;28;20452;-64
2021/09/19 03:35:48;;;;;;;23.40;17.87;;;10.30;99.90;;;;;;5110664;28;20681;-64
2021/09/19 03:38:14;;;;;;;20.13;18.03;;;10.30;99.90;;;;;;5110633;28;20445;-64
2021/09/19 03:40:41;;;;;;;20.73;16.53;;;10.30;99.90;;;;;;5110626;28;20542;-64
2021/09/19 03:43:11;;;;;;;19.77;15.97;;;10.20;99.90;;;;;;5110356;28;20445;-64
2021/09/19 03:45:38;;;;;;;19.10;15.30;;;10.10;99.90;;;;;;5110415;28;20473;-64
2021/09/19 03:48:06;;;;;;;16.30;14.10;;;10.00;99.90;;;;;;5110498;28;20455;-64
2021/09/19 03:50:33;;;;;;;16.10;14.40;;;10.00;99.90;;;;;;5110706;28;20445;-64
2021/09/19 03:53:00;;;;;;;19.57;15.60;;;10.00;99.90;;;;;;5110233;28;20467;-64
2021/09/19 03:55:28;;;;;;;18.77;14.77;;;9.90;99.90;;;;;;5110459;28;21304;-64
2021/09/19 03:57:54;;;;;;;23.23;16.87;;;9.90;99.90;;;;;;5110735;28;20934;-64
2021/09/19 04:00:23;;;;;;;20.43;15.80;;;9.90;99.90;;;;;;5110530;28;20487;-64
2021/09/19 04:02:50;;;;;;;17.87;15.43;;;9.90;99.90;;;;;;5110053;28;20448;-64
2021/09/19 04:05:17;;;;;;;18.07;15.10;;;10.00;99.90;;;;;;5110495;28;20492;-64
2021/09/19 04:07:44;;;;;;;17.37;15.40;;;10.10;99.90;;;;;;5110583;28;20441;-64
2021/09/19 04:10:12;;;;;;;18.93;15.77;;;10.00;99.90;;;;;;5110451;28;20832;-65
2021/09/19 04:12:41;;;;;;;20.20;15.70;;;10.00;99.90;;;;;;5110038;28;20463;-64
2021/09/19 04:15:09;;;;;;;17.07;15.20;;;10.00;99.90;;;;;;5110125;28;20479;-64
2021/09/19 04:17:37;;;;;;;18.27;15.20;;;10.00;99.90;;;;;;5109961;28;20452;-64
2021/09/19 04:20:05;;;;;;;19.37;16.80;;;10.00;99.90;;;;;;5110117;28;20485;-64
2021/09/19 04:22:32;;;;;;;17.33;15.33;;;10.00;99.90;;;;;;5111188;28;20445;-65
2021/09/19 04:25:00;;;;;;;21.30;14.50;;;9.90;99.90;;;;;;5113804;28;21143;-64
2021/09/19 04:27:27;;;;;;;18.50;15.43;;;9.80;99.90;;;;;;5113998;28;20456;-64
2021/09/19 04:29:54;;;;;;;19.83;16.03;;;9.80;99.90;;;;;;5114079;28;20445;-64
2021/09/19 04:32:21;;;;;;;20.03;16.27;;;9.80;99.90;;;;;;5113495;28;20885;-64
2021/09/19 04:34:50;;;;;;;18.27;15.10;;;9.90;99.90;;;;;;5113692;28;20455;-64
2021/09/19 04:37:17;;;;;;;16.20;14.17;;;9.80;99.90;;;;;;5113856;28;20952;-64
2021/09/19 04:39:45;;;;;;;16.93;14.43;;;9.80;99.90;;;;;;5113791;28;20484;-64
2021/09/19 04:42:13;;;;;;;18.80;15.43;;;9.80;99.90;;;;;;5113228;28;20935;-64
2021/09/19 04:44:40;;;;;;;18.87;16.30;;;9.80;99.90;;;;;;5113989;28;20448;-65
2021/09/19 04:47:07;;;;;;;18.37;15.87;;;9.70;99.90;;;;;;5113678;28;20469;-64
2021/09/19 04:49:34;;;;;;;17.77;15.87;;;9.70;99.90;;;;;;5113637;28;20437;-64
2021/09/19 04:52:02;;;;;;;19.90;16.40;;;9.70;99.90;;;;;;5113309;28;20448;-64
2021/09/19 04:54:29;;;;;;;18.60;16.60;;;9.70;99.90;;;;;;5113543;28;20433;-64
2021/09/19 04:56:56;;;;;;;19.40;16.00;;;9.70;99.90;;;;;;5113437;28;21231;-64
2021/09/19 04:59:23;;;;;;;17.93;14.40;;;9.70;99.90;;;;;;5113443;28;20580;-64
2021/09/19 05:01:50;;;;;;;18.23;15.50;;;9.70;99.90;;;;;;5113072;28;20449;-64
2021/09/19 05:04:16;;;;;;;17.60;15.00;;;9.60;99.90;;;;;;5113582;28;20441;-65
2021/09/19 05:06:43;;;;;;;21.80;17.70;;;9.50;99.90;;;;;;5113476;28;20457;-64
2021/09/19 05:09:12;;;;;;;19.77;15.93;;;9.50;99.90;;;;;;5113382;28;20516;-64
2021/09/19 05:11:38;;;;;;;21.53;17.10;;;9.50;99.90;;;;;;5112737;28;20496;-64
2021/09/19 05:14:05;;;;;;;21.47;16.90;;;9.50;99.90;;;;;;5112905;28;20815;-64
2021/09/19 05:16:32;;;;;;;19.97;16.90;;;9.50;99.90;;;;;;5113037;28;20476;-64
2021/09/19 05:18:59;;;;;;;18.77;16.77;;;9.60;99.90;;;;;;5112987;28;21033;-64
2021/09/19 05:21:26;;;;;;;17.50;15.70;;;9.70;99.90;;;;;;5112468;28;20445;-64
2021/09/19 05:23:54;;;;;;;18.93;15.43;;;9.70;99.90;;;;;;5112785;28;20449;-64
2021/09/19 05:26:22;;;;;;;19.23;15.03;;;9.60;99.90;;;;;;5112440;28;20548;-65
2021/09/19 05:28:49;;;;;;;18.30;16.30;;;9.60;99.90;;;;;;5113154;28;20449;-64
2021/09/19 05:31:16;;;;;;;19.87;14.70;;;9.60;99.90;;;;;;5112637;28;20541;-64
2021/09/19 05:33:44;;;;;;;19.43;14.80;;;9.70;99.90;;;;;;5111423;28;20833;-64
2021/09/19 05:36:11;;;;;;;17.73;15.23;;;9.80;99.90;;;;;;5112506;28;20571;-65
2021/09/19 05:38:38;;;;;;;17.17;15.13;;;9.80;99.90;;;;;;5112831;28;20826;-66
2021/09/19 05:41:05;;;;;;;17.00;14.63;;;9.80;99.90;;;;;;5112393;28;20863;-65
2021/09/19 05:43:33;;;;;;;19.80;14.57;;;9.80;99.90;;;;;;5112228;28;20448;-65
2021/09/19 05:46:00;;;;;;;16.53;14.83;;;9.80;99.90;;;;;;5112370;28;20496;-65
2021/09/19 05:48:27;;;;;;;17.03;15.20;;;9.80;99.90;;;;;;5112277;28;20456;-66
2021/09/19 05:50:54;;;;;;;18.03;15.80;;;9.90;99.90;;;;;;5112130;28;20532;-66
2021/09/19 05:53:20;;;;;;;19.07;15.20;;;9.90;99.90;;;;;;5112160;28;20827;-65
2021/09/19 05:55:47;;;;;;;16.70;14.53;;;9.90;99.90;;;;;;5112288;28;20462;-65
2021/09/19 05:58:14;;;;;;;17.83;14.63;;;10.00;99.90;;;;;;5112109;27;20452;-65
2021/09/19 06:00:42;;;;;;;16.83;14.83;;;10.10;99.90;;;;;;5112295;28;20481;-65
2021/09/19 06:03:09;;;;;;;15.23;13.20;;;10.10;99.90;;;;;;5111741;28;21022;-65
2021/09/19 06:05:36;;;;;;;15.63;13.87;;;10.20;99.90;;;;;;5112013;28;20583;-65
2021/09/19 06:08:03;;;;;;;18.33;16.43;;;10.20;99.90;;;;;;5111822;28;20455;-65
2021/09/19 06:10:30;;;;;;;19.23;16.60;;;10.20;99.90;;;;;;5111464;27;20437;-65
2021/09/19 06:12:56;;;;;;;19.67;17.57;;;10.20;99.90;;;;;;5111156;28;20528;-65
2021/09/19 06:15:23;;;;;;;18.80;16.33;;;10.30;99.90;;;;;;5111238;28;20991;-65
2021/09/19 06:17:51;;;;;;;21.73;19.23;;;10.40;99.90;;;;;;5111372;28;20525;-65
2021/09/19 06:20:18;;;;;;;20.10;18.00;;;10.50;99.90;;;;;;5111125;28;21051;-65
2021/09/19 06:22:45;;;;;;;16.60;14.90;;;10.60;99.90;;;;;;5111018;28;20939;-65
2021/09/19 06:25:12;;;;;;;18.20;15.43;;;10.60;99.90;;;;;;5111270;28;20467;-65
2021/09/19 06:27:39;;;;;;;17.13;14.50;;;10.70;99.90;;;;;;5111250;28;20452;-65
2021/09/19 06:30:08;;;;;;;17.03;15.00;;;10.80;99.90;;;;;;5111249;28;20437;-65
2021/09/19 06:32:35;;;;;;;17.23;15.50;;;10.90;99.90;;;;;;5111029;28;20534;-65
2021/09/19 06:35:03;;;;;;;18.00;15.63;;;11.00;99.90;;;;;;5110973;28;20540;-65
2021/09/19 06:37:30;;;;;;;16.93;15.13;;;11.10;99.90;;;;;;5111375;28;20449;-65
2021/09/19 06:39:57;;;;;;;14.30;12.80;;;11.20;99.90;;;;;;5110849;28;20483;-65
2021/09/19 06:42:24;;;;;;;15.30;13.80;;;11.30;99.90;;;;;;5110900;28;20544;-65
2021/09/19 06:44:50;;;;;;;15.07;12.30;;;11.40;99.90;;;;;;5110401;28;20449;-65
2021/09/19 06:47:17;;;;;;;13.77;12.30;;;11.50;99.90;;;;;;5111015;28;20541;-65
2021/09/19 06:49:44;;;;;;;15.00;12.57;;;11.60;99.90;;;;;;5110994;28;20448;-65
2021/09/19 06:52:12;;;;;;;14.90;11.80;;;11.70;99.90;;;;;;5110446;28;20447;-65
2021/09/19 06:54:41;;;;;;;14.00;12.63;;;11.80;99.90;;;;;;5110746;28;20445;-65
2021/09/19 06:57:08;;;;;;;14.53;13.07;;;11.80;99.90;;;;;;5110407;28;20474;-65
2021/09/19 06:59:35;;;;;;;13.73;12.33;;;11.80;99.90;;;;;;5110503;28;20473;-65
2021/09/19 07:02:02;;;;;;;18.07;15.93;;;11.90;99.90;;;;;;5110147;28;21034;-65
2021/09/19 07:04:29;;;;;;;17.40;12.60;;;12.00;99.90;;;;;;5110642;28;20437;-65
2021/09/19 07:06:56;;;;;;;13.43;12.00;;;12.10;99.90;;;;;;5110287;28;21217;-65
2021/09/19 07:09:24;;;;;;;14.13;12.70;;;12.20;99.90;;;;;;5110429;28;20544;-65
2021/09/19 07:11:51;;;;;;;12.23;10.80;;;12.30;99.90;;;;;;5109969;28;20938;-65
2021/09/19 07:14:18;;;;;;;13.07;11.67;;;12.30;99.90;;;;;;5110209;28;20452;-66
2021/09/19 07:16:44;;;;;;;13.97;11.30;;;12.40;99.90;;;;;;5110366;28;20489;-65
2021/09/19 07:19:11;;;;;;;12.23;11.03;;;12.50;99.90;;;;;;5110232;27;21029;-66
2021/09/19 07:21:38;;;;;;;12.50;11.27;;;12.60;99.90;;;;;;5110028;28;20448;-65
2021/09/19 07:24:05;;;;;;;11.70;10.50;;;12.60;99.90;;;;;;5110158;28;20457;-66
2021/09/19 07:26:33;;;;;;;10.23;9.30;;;12.70;99.90;;;;;;5110072;27;20465;-66
2021/09/19 07:29:01;;;;;;;10.90;8.57;;;12.80;99.90;;;;;;5110243;28;20449;-65
2021/09/19 07:31:28;;;;;;;11.30;10.20;;;12.90;99.90;;;;;;5110040;28;20449;-65
2021/09/19 07:33:56;;;;;;;10.30;9.30;;;13.00;99.90;;;;;;5110084;28;20557;-65
2021/09/19 07:36:27;;;;;;;10.00;9.00;;;13.00;99.90;;;;;;5110288;28;20488;-66
2021/09/19 07:38:57;;;;;;;10.53;9.53;;;13.10;99.90;;;;;;5110014;28;20506;-66
2021/09/19 07:41:24;;;;;;;10.30;8.27;;;13.20;99.90;;;;;;5109625;28;20484;-65
2021/09/19 07:43:54;;;;;;;8.90;8.10;;;13.30;99.90;;;;;;5110029;28;20442;-65
2021/09/19 07:46:22;;;;;;;9.17;8.27;;;13.40;99.90;;;;;;5109825;28;20552;-65
2021/09/19 07:48:50;;;;;;;8.97;8.10;;;13.50;99.90;;;;;;5109840;28;20806;-65
2021/09/19 07:51:17;;;;;;;8.13;7.33;;;13.60;99.90;;;;;;5109874;28;20456;-66
2021/09/19 07:53:46;;;;;;;9.50;7.57;;;13.60;99.90;;;;;;5109603;28;20433;-65
2021/09/19 07:56:13;;;;;;;8.70;7.87;;;13.70;99.90;;;;;;5109969;28;20473;-65
2021/09/19 07:58:40;;;;;;;9.57;8.43;;;13.80;99.90;;;;;;5113433;28;20447;-66
2021/09/19 08:01:08;;;;;;;7.05;6.35;;;13.90;99.90;;;;;;5113775;28;20442;-65
2021/09/19 08:03:35;;;;;;;7.80;7.10;;;14.00;99.90;;;;;;5113566;28;20231;-67
2021/09/19 08:06:02;;;;;;;7.30;6.70;;;14.10;99.90;;;;;;5113833;27;21114;-66
2021/09/19 08:08:29;;;;;;;8.50;7.27;;;14.10;99.90;;;;;;5114083;27;20533;-66
2021/09/19 08:10:56;;;;;;;8.07;7.27;;;14.30;99.90;;;;;;5129422;27;20948;-67
2021/09/19 08:13:23;;;;;;;8.07;7.27;;;14.40;99.90;;;;;;5133885;27;20535;-66
2021/09/19 08:15:50;;;;;;;6.73;6.13;;;14.50;99.90;;;;;;5134150;27;20464;-68
2021/09/19 08:18:18;;;;;;;6.83;6.13;;;14.60;99.90;;;;;;5134232;27;20536;-67
2021/09/19 08:20:46;;;;;;;7.87;7.07;;;14.80;99.90;;;;;;5133984;27;20562;-67
2021/09/19 08:23:13;;;;;;;9.27;7.40;;;15.00;99.90;;;;;;5134005;27;20504;-67
2021/09/19 08:25:40;;;;;;;7.80;7.00;;;15.10;99.90;;;;;;5134304;27;20551;-66
2021/09/19 08:28:07;;;;;;;8.53;7.73;;;15.20;99.90;;;;;;5134065;27;20444;-67
2021/09/19 08:30:33;;;;;;;7.30;6.63;;;15.20;99.90;;;;;;5134030;27;20480;-66
2021/09/19 08:33:00;;;;;;;8.40;6.97;;;15.20;99.90;;;;;;5133550;27;20444;-66
2021/09/19 08:35:29;;;;;;;7.97;7.17;;;15.20;99.90;;;;;;5133587;27;20539;-68
2021/09/19 08:37:55;;;;;;;8.13;7.33;;;15.30;99.90;;;;;;5133905;27;20440;-68
2021/09/19 08:40:22;;;;;;;7.33;6.40;;;15.40;99.90;;;;;;5133825;27;20483;-66
2021/09/19 08:42:54;;;;;;;7.60;6.90;;;15.50;99.90;;;;;;5133502;27;20535;-67
2021/09/19 08:45:21;;;;;;;8.17;7.27;;;15.60;99.90;;;;;;5133702;27;20551;-66
2021/09/19 08:47:50;;;;;;;6.80;6.20;;;15.70;99.90;;;;;;5133655;27;20474;-66
2021/09/19 08:50:17;;;;;;;6.80;6.10;;;15.90;99.90;;;;;;5120372;27;20449;-66
2021/09/19 08:52:46;;;;;;;6.87;6.17;;;16.20;99.90;;;;;;5112134;28;20801;-66
2021/09/19 08:55:13;;;;;;;6.57;5.93;;;16.40;99.90;;;;;;5112248;28;20473;-66
2021/09/19 08:57:40;;;;;;;6.53;5.47;;;16.50;99.90;;;;;;5112551;28;20441;-66
2021/09/19 09:00:10;;;;;;;6.10;5.50;;;16.70;99.90;;;;;;5119051;27;20559;-69
2021/09/19 09:02:48;;;;;;;6.03;5.33;;;16.90;99.90;;;;;;5132662;27;20974;-67
2021/09/19 09:05:21;;;;;;;6.50;5.90;;;17.20;99.90;;;;;;5132926;27;20464;-67
2021/09/19 09:07:52;;;;;;;7.80;5.50;;;17.50;99.90;;;;;;5132774;27;20884;-66
2021/09/19 09:10:33;;;;;;;6.20;5.57;;;17.70;99.90;;;;;;5133029;27;20492;-67
2021/09/19 09:13:01;;;;;;;6.23;5.63;;;17.90;99.90;;;;;;5132535;27;20446;-67
2021/09/19 09:15:40;;;;;;;5.87;5.27;;;18.10;99.90;;;;;;5132802;27;20588;-67
2021/09/19 09:18:08;;;;;;;5.83;5.23;;;18.40;99.90;;;;;;5132334;27;20820;-67
2021/09/19 09:20:55;;;;;;;5.50;5.00;;;18.80;99.90;;;;;;5132091;27;20480;-65
2021/09/19 09:23:30;;;;;;;5.70;5.20;;;19.20;99.90;;;;;;5123192;27;20975;-66
2021/09/19 09:26:16;;;;;;;5.27;4.77;;;19.40;99.90;;;;;;5128731;27;20490;-66
2021/09/19 09:28:46;;;;;;;7.80;5.30;;;19.90;99.90;;;;;;5132296;27;20455;-66
2021/09/19 09:31:13;;;;;;;5.40;4.90;;;19.80;99.90;;;;;;5131960;27;20441;-66
2021/09/19 09:33:55;;;;;;;6.17;5.60;;;20.00;99.90;;;;;;5131736;27;20437;-65
2021/09/19 09:36:31;;;;;;;4.90;4.43;;;20.40;99.90;;;;;;5132219;27;20876;-65
2021/09/19 09:38:59;;;;;;;5.00;4.60;;;20.60;99.90;;;;;;5132156;27;20882;-65
2021/09/19 09:41:39;;;;;;;5.33;4.83;;;20.80;99.90;;;;;;5131224;27;20482;-66
2021/09/19 09:44:25;;;;;;;5.90;4.50;;;21.20;99.90;;;;;;5131568;27;20926;-65
2021/09/19 09:46:52;;;;;;;5.50;4.83;;;21.20;99.90;;;;;;5131409;27;20543;-65
2021/09/19 09:49:23;;;;;;;4.97;4.57;;;21.00;99.90;;;;;;5131184;27;20497;-66
2021/09/19 09:51:50;;;;;;;4.57;4.17;;;21.20;99.90;;;;;;5130252;27;20531;-66
2021/09/19 09:54:18;;;;;;;4.30;3.60;;;21.40;99.90;;;;;;5128437;27;20449;-66
2021/09/19 09:56:47;;;;;;;4.97;3.97;;;21.70;99.90;;;;;;5126846;27;20543;-65
2021/09/19 09:59:16;;;;;;;4.80;4.40;;;21.80;99.90;;;;;;5131273;27;20448;-66
2021/09/19 10:01:44;;;;;;;5.07;4.47;;;21.60;99.90;;;;;;5130859;27;20491;-66
2021/09/19 10:04:12;;;;;;;4.93;4.43;;;21.40;99.90;;;;;;5131071;27;20448;-66
2021/09/19 10:06:39;;;;;;;4.30;3.90;;;21.80;99.90;;;;;;5131021;27;20472;-66
2021/09/19 10:09:07;;;;;;;5.27;4.10;;;22.00;99.90;;;;;;5130950;27;20862;-66
2021/09/19 10:11:37;;;;;;;6.37;4.67;;;22.50;99.90;;;;;;5131115;27;20443;-66
2021/09/19 10:14:04;;;;;;;4.83;4.33;;;22.50;99.90;;;;;;5131315;27;20929;-68
2021/09/19 10:16:32;;;;;;;5.00;4.50;;;22.90;99.90;;;;;;5131115;27;20544;-67
2021/09/19 10:19:00;;;;;;;6.33;5.23;;;22.90;99.90;;;;;;5130877;27;20452;-66
2021/09/19 10:21:31;;;;;;;6.00;5.30;;;22.80;99.90;;;;;;5129654;27;20846;-65
2021/09/19 10:23:59;;;;;;;5.30;4.77;;;22.40;99.90;;;;;;5130633;27;20458;-66
2021/09/19 10:26:26;;;;;;;6.13;4.93;;;22.50;99.90;;;;;;5120146;27;20489;-66
2021/09/19 10:28:55;;;;;;;6.27;4.70;;;22.60;99.90;;;;;;5124373;27;20977;-66
2021/09/19 10:31:30;;;;;;;5.33;4.63;;;23.00;99.90;;;;;;5126588;27;20432;-66
2021/09/19 10:33:59;;;;;;;5.40;4.90;;;23.50;99.90;;;;;;5130419;27;21048;-67
2021/09/19 10:36:35;;;;;;;5.20;4.70;;;23.90;99.90;;;;;;5124440;27;20468;-68
2021/09/19 10:39:31;;;;;;;5.20;4.70;;;24.00;99.90;;;;;;5123493;27;20974;-66
2021/09/19 10:42:19;;;;;;;5.50;4.20;;;23.90;99.90;;;;;;5081134;27;20481;-65
2021/09/19 10:45:15;;;;;;;6.30;5.70;;;24.00;99.90;;;;;;5126439;27;20520;-68
2021/09/19 10:47:50;;;;;;;4.93;4.53;;;23.30;99.90;;;;;;5130362;27;20444;-65
2021/09/19 10:50:28;;;;;;;7.40;4.97;;;23.10;99.90;;;;;;5130161;27;20816;-66
2021/09/19 10:52:57;;;;;;;6.17;4.53;;;23.30;99.90;;;;;;5137794;27;20488;-66
2021/09/19 10:55:31;;;;;;;6.57;5.23;;;23.90;99.90;;;;;;5140390;27;20520;-66
2021/09/19 10:58:01;;;;;;;4.53;4.13;;;24.60;99.70;;;;;;5135892;27;20520;-66
2021/09/19 11:00:30;;;;;;;6.00;4.17;;;24.80;99.90;;;;;;5146968;27;20526;-67
2021/09/19 11:03:16;;;;;;;6.77;4.30;;;25.50;99.90;;;;;;5129639;27;20930;-66
2021/09/19 11:05:48;;;;;;;5.80;5.00;;;24.90;98.40;;;;;;5125847;27;20891;-66
2021/09/19 11:08:36;;;;;;;5.93;5.13;;;24.30;98.60;;;;;;5130569;27;20485;-67
2021/09/19 11:11:28;;;;;;;5.43;4.93;;;23.70;99.90;;;;;;5115156;27;20804;-67
2021/09/19 11:14:01;;;;;;;6.30;5.13;;;23.80;99.90;;;;;;5113627;27;20452;-66
2021/09/19 11:16:40;;;;;;;6.20;5.60;;;24.30;99.70;;;;;;5122542;27;20469;-66
2021/09/19 11:19:10;;;;;;;5.43;4.93;;;24.40;99.00;;;;;;5116435;27;20453;-65
2021/09/19 11:21:44;;;;;;;5.80;5.30;;;24.60;99.20;;;;;;5116883;27;20997;-66
2021/09/19 11:24:16;;;;;;;6.30;5.70;;;24.60;99.00;;;;;;5119006;27;21476;-66
2021/09/19 11:26:47;;;;;;;5.70;5.10;;;24.40;98.20;;;;;;5127019;27;20835;-66
2021/09/19 11:29:15;;;;;;;6.00;5.40;;;24.70;98.50;;;;;;5130816;27;20449;-66
2021/09/19 11:31:45;;;;;;;6.30;5.10;;;25.60;98.30;;;;;;5121204;27;20439;-66
2021/09/19 11:34:14;;;;;;;5.00;4.47;;;26.40;96.50;;;;;;5129666;27;20479;-66
2021/09/19 11:36:44;;;;;;;6.17;4.50;;;26.20;96.40;;;;;;5119578;27;20448;-66
2021/09/19 11:39:11;;;;;;;4.97;4.50;;;25.40;96.90;;;;;;5120019;27;20806;-67
2021/09/19 11:41:38;;;;;;;5.53;4.53;;;25.10;97.10;;;;;;5116772;27;20564;-66
2021/09/19 11:44:05;;;;;;;4.80;4.30;;;25.60;96.00;;;;;;5117261;27;20456;-66
2021/09/19 11:46:34;;;;;;;5.10;4.60;;;25.80;96.70;;;;;;5114913;27;20844;-65
2021/09/19 11:49:04;;;;;;;4.70;4.27;;;25.80;97.00;;;;;;5111470;27;20456;-66
2021/09/19 11:51:32;;;;;;;5.27;4.77;;;26.30;95.50;;;;;;5117270;27;20445;-68
2021/09/19 11:53:59;;;;;;;4.93;4.43;;;26.40;95.20;;;;;;5113614;27;20863;-66
2021/09/19 11:56:28;;;;;;;7.10;5.00;;;26.70;94.40;;;;;;5124713;27;20464;-66
2021/09/19 11:58:56;;;;;;;5.70;5.20;;;26.70;94.60;;;;;;5116530;27;20532;-66
2021/09/19 12:01:24;;;;;;;6.53;4.87;;;27.00;93.00;;;;;;5120240;27;20468;-66
2021/09/19 12:03:54;;;;;;;5.00;4.50;;;27.30;95.10;;;;;;5116356;27;20459;-67
2021/09/19 12:06:22;;;;;;;4.67;4.23;;;27.50;93.70;;;;;;5120507;27;20465;-66
2021/09/19 12:08:49;;;;;;;7.70;4.93;;;28.10;94.10;;;;;;5119914;27;20445;-66
2021/09/19 12:11:17;;;;;;;5.97;4.97;;;26.90;93.40;;;;;;5125606;28;20469;-68
2021/09/19 12:13:48;;;;;;;5.50;4.60;;;24.80;95.50;;;;;;5127321;28;20439;-67
2021/09/19 12:16:22;;;;;;;5.83;5.33;;;23.30;98.10;;;;;;5123432;27;20485;-67
2021/09/19 12:18:51;;;;;;;4.97;4.07;;;22.20;99.90;;;;;;5121656;28;20441;-68
2021/09/19 12:21:21;;;;;;;5.10;4.53;;;22.00;99.90;;;;;;5118754;27;20525;-67
2021/09/19 12:23:52;;;;;;;5.33;4.80;;;22.70;99.90;;;;;;5121511;28;20436;-67
2021/09/19 12:26:21;;;;;;;4.70;4.13;;;25.10;99.50;;;;;;5129465;27;20448;-67
2021/09/19 12:28:49;;;;;;;5.33;3.90;;;27.60;96.90;;;;;;5128771;27;20464;-68
2021/09/19 12:31:36;;;;;;;4.57;4.17;;;29.30;91.30;;;;;;5131318;27;21203;-65
2021/09/19 12:34:04;;;;;;;5.93;5.43;;;30.70;90.10;;;;;;5126938;27;20525;-67
2021/09/19 12:36:39;;;;;;;5.83;4.73;;;28.40;88.50;;;;;;5143783;27;20452;-67
2021/09/19 12:39:13;;;;;;;5.43;4.87;;;25.90;93.60;;;;;;5132419;27;20514;-67
2021/09/19 12:41:41;;;;;;;5.43;4.93;;;23.90;96.30;;;;;;5136474;27;20530;-67
2021/09/19 12:44:14;;;;;;;5.60;5.10;;;23.00;99.40;;;;;;5126187;27;20531;-67